createdAt,value
2023-04-28T00:00:47.330Z,101072.13
2023-04-28T00:03:51.393Z,101086.19
2023-04-28T00:06:54.947Z,101042.09
2023-04-28T00:09:58.380Z,101080.09
2023-04-28T00:13:01.559Z,101039.59
2023-04-28T00:16:05.520Z,101075.88
2023-04-28T00:19:09.677Z,101060.84
2023-04-28T00:22:15.318Z,101094.41
2023-04-28T00:25:19.646Z,101085.50
2023-04-28T00:28:33.478Z,101085.72
2023-04-28T00:31:37.957Z,101084.81
2023-04-28T00:34:41.531Z,101079.56
2023-04-28T00:37:44.725Z,101087.50
2023-04-28T00:40:48.502Z,101084.00
2023-04-28T00:43:51.823Z,101085.78
2023-04-28T00:46:56.345Z,101085.72
2023-04-28T00:50:07.781Z,101095.47
2023-04-28T00:53:15.080Z,101081.28
2023-04-28T00:56:18.278Z,101085.72
2023-04-28T00:59:22.037Z,101081.37
2023-04-28T01:02:27.161Z,101092.16
2023-04-28T01:05:32.722Z,101094.00
2023-04-28T01:08:38.474Z,101099.38
2023-04-28T01:11:42.318Z,101101.19
2023-04-28T01:14:46.532Z,101101.19
2023-04-28T01:17:51.545Z,101107.44
2023-04-28T01:20:54.857Z,101108.37
2023-04-28T01:23:59.439Z,101102.16
2023-04-28T01:27:03.154Z,101107.44
2023-04-28T01:30:07.317Z,101108.34
2023-04-28T01:33:11.227Z,101106.56
2023-04-28T01:36:14.695Z,101110.09
2023-04-28T01:39:19.734Z,101111.87
2023-04-28T01:42:23.269Z,101111.94
2023-04-28T01:45:26.248Z,101102.22
2023-04-28T01:48:29.715Z,101108.44
2023-04-28T01:51:33.027Z,101096.94
2023-04-28T01:54:37.475Z,101101.44
2023-04-28T01:57:40.782Z,101099.62
2023-04-28T02:00:44.502Z,101097.87
2023-04-28T02:03:50.750Z,101105.00
2023-04-28T02:06:54.865Z,101112.13
2023-04-28T02:09:58.312Z,101104.19
2023-04-28T02:13:01.811Z,101104.22
2023-04-28T02:16:07.391Z,101107.78
2023-04-28T02:19:10.979Z,101109.50
2023-04-28T02:22:14.625Z,101113.06
2023-04-28T02:25:18.231Z,101113.91
2023-04-28T02:28:21.780Z,101120.09
2023-04-28T02:31:25.235Z,101124.53
2023-04-28T02:34:30.082Z,101121.87
2023-04-28T02:37:33.197Z,101120.12
2023-04-28T02:40:36.788Z,101126.38
2023-04-28T02:43:40.227Z,101127.31
2023-04-28T02:46:43.947Z,101130.00
2023-04-28T02:49:47.493Z,101107.94
2023-04-28T02:52:52.430Z,101127.41
2023-04-28T02:55:55.590Z,101126.53
2023-04-28T02:58:59.649Z,101130.97
2023-04-28T03:02:02.746Z,101128.31
2023-04-28T03:05:07.133Z,101130.97
2023-04-28T03:08:10.234Z,101124.78
2023-04-28T03:11:13.896Z,101122.13
2023-04-28T03:14:17.495Z,101128.28
2023-04-28T03:17:20.853Z,101126.53
2023-04-28T03:20:24.225Z,101123.88
2023-04-28T03:23:28.233Z,101136.28
2023-04-28T03:26:32.652Z,101133.59
2023-04-28T03:29:36.448Z,101143.34
2023-04-28T03:32:39.901Z,101141.56
2023-04-28T03:35:43.835Z,101147.75
2023-04-28T03:38:47.017Z,101136.25
2023-04-28T03:41:50.799Z,101137.12
2023-04-28T03:44:54.750Z,101138.91
2023-04-28T03:47:58.777Z,101111.47
2023-04-28T03:51:02.232Z,101137.06
2023-04-28T03:54:05.846Z,101134.34
2023-04-28T03:57:09.693Z,101127.25
2023-04-28T04:00:14.819Z,101134.31
2023-04-28T04:03:18.349Z,101141.38
2023-04-28T04:06:21.915Z,101137.84
2023-04-28T04:09:25.238Z,101137.78
2023-04-28T04:12:28.777Z,101131.47
2023-04-28T04:15:32.091Z,101137.56
2023-04-28T04:18:35.760Z,101141.87
2023-04-28T04:21:41.231Z,101143.41
2023-04-28T04:24:44.794Z,101122.06
2023-04-28T04:27:47.990Z,101143.94
2023-04-28T04:30:51.850Z,101146.47
2023-04-28T04:33:54.966Z,101148.97
2023-04-28T04:36:58.317Z,101152.31
2023-04-28T04:40:03.640Z,101152.19
2023-04-28T04:43:08.836Z,101152.91
2023-04-28T04:46:14.831Z,101143.75
2023-04-28T04:49:19.782Z,101147.03
2023-04-28T04:52:22.945Z,101145.87
2023-04-28T04:55:27.466Z,101141.91
2023-04-28T04:58:31.402Z,101141.28
2023-04-28T05:01:36.119Z,101139.41
2023-04-28T05:04:39.700Z,101140.56
2023-04-28T05:07:44.079Z,101134.94
2023-04-28T05:10:47.207Z,101127.34
2023-04-28T05:13:51.573Z,101136.38
2023-04-28T05:16:57.041Z,101138.09
2023-04-28T05:20:00.858Z,101146.72
2023-04-28T05:23:04.076Z,101143.62
2023-04-28T05:26:08.239Z,101139.72
2023-04-28T05:29:11.669Z,101147.84
2023-04-28T05:32:15.382Z,101145.44
2023-04-28T05:35:18.629Z,101145.56
2023-04-28T05:38:23.384Z,101147.09
2023-04-28T05:41:27.359Z,101149.78
2023-04-28T05:44:31.811Z,101142.28
2023-04-28T05:47:36.869Z,101141.78
2023-04-28T05:50:41.459Z,101141.25
2023-04-28T05:53:49.005Z,101143.03
2023-04-28T05:56:54.131Z,101140.50
2023-04-28T05:59:58.457Z,101138.03
2023-04-28T06:03:02.364Z,101134.41
2023-04-28T06:06:09.675Z,101129.56
2023-04-28T06:09:16.186Z,101128.34
2023-04-28T06:12:21.397Z,101132.72
2023-04-28T06:15:24.699Z,101135.34
2023-04-28T06:18:32.674Z,101134.84
2023-04-28T06:21:38.308Z,101132.41
2023-04-28T06:24:43.349Z,101117.91
2023-04-28T06:27:47.105Z,101128.66
2023-04-28T06:30:51.173Z,101134.72
2023-04-28T06:33:54.743Z,101140.72
2023-04-28T06:36:59.310Z,101143.66
2023-04-28T06:40:02.724Z,101137.34
2023-04-28T06:43:06.553Z,101140.53
2023-04-28T06:46:11.568Z,101142.66
2023-04-28T06:49:15.642Z,101131.63
2023-04-28T06:52:20.028Z,101140.88
2023-04-28T06:55:27.081Z,101140.44
2023-04-28T06:58:30.322Z,101129.59
2023-04-28T07:01:34.080Z,101126.81
2023-04-28T07:04:37.717Z,101130.78
2023-04-28T07:07:41.162Z,101120.41
2023-04-28T07:10:44.448Z,101125.50
2023-04-28T07:13:50.566Z,101130.81
2023-04-28T07:16:54.141Z,101122.97
2023-04-28T07:19:57.689Z,101108.69
2023-04-28T07:23:01.035Z,101111.25
2023-04-28T07:26:05.722Z,101106.88
2023-04-28T07:29:13.696Z,101093.09
2023-04-28T07:32:17.572Z,101099.59
2023-04-28T07:35:22.867Z,101094.41
2023-04-28T07:38:27.673Z,101101.84
2023-04-28T07:41:30.744Z,101090.59
2023-04-28T07:44:35.848Z,101094.00
2023-04-28T07:47:39.236Z,101097.69
2023-04-28T07:50:44.049Z,101096.91
2023-04-28T07:53:48.746Z,101089.91
2023-04-28T07:56:52.286Z,101084.72
2023-04-28T07:59:55.537Z,101080.31
2023-04-28T08:02:59.294Z,101071.13
2023-04-28T08:06:03.028Z,101068.84
2023-04-28T08:09:06.763Z,101068.84
2023-04-28T08:12:10.218Z,101054.63
2023-04-28T08:15:13.649Z,101057.53
2023-04-28T08:18:17.252Z,101052.75
2023-04-28T08:21:20.372Z,101054.72
2023-04-28T08:24:23.781Z,101053.09
2023-04-28T08:27:27.361Z,101049.81
2023-04-28T08:30:32.281Z,101045.06
2023-04-28T08:33:35.547Z,101043.03
2023-04-28T08:36:40.238Z,101038.72
2023-04-28T08:39:43.942Z,101036.78
2023-04-28T08:42:47.504Z,101029.69
2023-04-28T08:45:50.689Z,101019.47
2023-04-28T08:48:59.867Z,101017.22
2023-04-28T08:52:04.968Z,101024.19
2023-04-28T08:55:13.203Z,101013.56
2023-04-28T08:58:16.944Z,101011.56
2023-04-28T09:01:20.393Z,101006.66
2023-04-28T09:04:24.056Z,101001.47
2023-04-28T09:07:28.204Z,101007.38
2023-04-28T09:10:31.282Z,100993.13
2023-04-28T09:13:34.974Z,100996.84
2023-04-28T09:16:41.981Z,100994.22
2023-04-28T09:19:45.296Z,100998.91
2023-04-28T09:22:49.089Z,100995.84
2023-04-28T09:25:59.633Z,100988.59
2023-04-28T09:29:13.906Z,100987.22
2023-04-28T09:32:19.432Z,100992.19
2023-04-28T09:35:43.517Z,100984.31
2023-04-28T09:38:47.178Z,100981.50
2023-04-28T09:41:50.321Z,100982.44
2023-04-28T09:44:55.039Z,100970.88
2023-04-28T09:48:11.129Z,100973.94
2023-04-28T09:51:21.027Z,100951.66
2023-04-28T09:54:28.696Z,100962.81
2023-04-28T09:57:34.402Z,100963.47
2023-04-28T10:00:40.712Z,100954.88
2023-04-28T10:03:44.719Z,100950.13
2023-04-28T10:06:48.623Z,100935.34
2023-04-28T10:09:51.943Z,100950.13
2023-04-28T10:12:56.375Z,100950.19
2023-04-28T10:16:00.528Z,100944.63
2023-04-28T10:19:05.020Z,100935.63
2023-04-28T10:22:43.078Z,100934.69
2023-04-28T10:25:50.217Z,100928.25
2023-04-28T10:28:53.966Z,100925.03
2023-04-28T10:32:15.577Z,100921.50
2023-04-28T10:35:25.661Z,100915.94
2023-04-28T10:38:28.901Z,100903.28
2023-04-28T10:41:33.362Z,100896.47
2023-04-28T10:44:37.618Z,100884.22
2023-04-28T10:48:10.357Z,100876.66
2023-04-28T10:51:24.495Z,100864.44
2023-04-28T10:54:30.292Z,100869.22
2023-04-28T10:57:33.358Z,100871.56
2023-04-28T11:00:37.640Z,100862.50
2023-04-28T11:03:47.855Z,100860.13
2023-04-28T11:07:11.698Z,100861.84
2023-04-28T11:10:15.019Z,100857.37
2023-04-28T11:13:34.665Z,100853.56
2023-04-28T11:16:51.536Z,100854.53
2023-04-28T11:19:57.109Z,100851.72
2023-04-28T11:23:00.562Z,100856.63
2023-04-28T11:26:04.075Z,100854.09
2023-04-28T11:29:07.311Z,100851.63
2023-04-28T11:32:11.010Z,100846.72
2023-04-28T11:35:14.073Z,100854.47
2023-04-28T11:38:17.505Z,100852.50
2023-04-28T11:41:20.913Z,100844.50
2023-04-28T11:44:28.208Z,100836.59
2023-04-28T11:47:32.974Z,100842.00
2023-04-28T11:50:38.238Z,100838.44
2023-04-28T11:53:46.003Z,100839.16
2023-04-28T11:56:50.838Z,100840.16
2023-04-28T11:59:54.404Z,100830.75
2023-04-28T12:02:59.005Z,100834.97
2023-04-28T12:06:02.815Z,100830.69
2023-04-28T12:09:21.776Z,100817.63
2023-04-28T12:15:41.275Z,100808.38
2023-04-28T12:19:00.269Z,100798.25
2023-04-28T12:22:07.739Z,100793.72
2023-04-28T12:25:13.512Z,100792.06
2023-04-28T12:28:16.636Z,100805.19
2023-04-28T12:31:21.192Z,100793.75
2023-04-28T12:34:25.998Z,100781.09
2023-04-28T12:37:29.358Z,100792.78
2023-04-28T12:40:33.385Z,100780.91
2023-04-28T12:43:36.856Z,100784.12
2023-04-28T12:46:40.097Z,100771.72
2023-04-28T12:49:44.770Z,100762.81
2023-04-28T12:52:48.071Z,100751.97
2023-04-28T12:55:52.405Z,100730.62
2023-04-28T12:58:56.195Z,100730.91
2023-04-28T13:02:00.009Z,100713.09
2023-04-28T13:05:03.790Z,100714.34
2023-04-28T13:08:07.274Z,100706.31
2023-04-28T13:11:21.770Z,100708.25
2023-04-28T13:14:28.069Z,100713.59
2023-04-28T13:17:31.214Z,100715.13
2023-04-28T13:20:34.830Z,100712.56
2023-04-28T13:23:37.969Z,100717.06
2023-04-28T13:26:41.576Z,100719.78
2023-04-28T13:29:44.855Z,100721.31
2023-04-28T13:32:48.540Z,100724.25
2023-04-28T13:35:51.936Z,100716.81
2023-04-28T13:38:55.610Z,100715.09
2023-04-28T13:42:00.072Z,100705.09
2023-04-28T13:45:04.868Z,100705.22
2023-04-28T13:48:07.989Z,100691.97
2023-04-28T13:51:12.602Z,100684.09
2023-04-28T13:54:16.024Z,100673.47
2023-04-28T13:57:19.430Z,100673.09
2023-04-28T14:00:24.933Z,100672.88
2023-04-28T14:03:29.104Z,100658.59
2023-04-28T14:06:34.669Z,100664.25
2023-04-28T14:09:38.296Z,100674.28
2023-04-28T14:12:41.547Z,100672.56
2023-04-28T14:15:57.720Z,100675.13
2023-04-28T14:19:02.591Z,100674.44
2023-04-28T14:22:06.178Z,100662.25
2023-04-28T14:25:10.023Z,100659.41
2023-04-28T14:28:13.305Z,100659.41
2023-04-28T14:31:16.779Z,100664.06
2023-04-28T14:34:20.387Z,100658.06
2023-04-28T14:37:23.592Z,100657.34
2023-04-28T14:40:27.076Z,100655.41
2023-04-28T14:43:30.348Z,100657.56
2023-04-28T14:46:34.074Z,100655.44
2023-04-28T14:49:37.324Z,100645.56
2023-04-28T14:52:41.337Z,100648.72
2023-04-28T14:55:45.736Z,100650.91
2023-04-28T14:58:50.058Z,100643.38
2023-04-28T15:01:54.370Z,100627.53
2023-04-28T15:04:58.632Z,100632.25
2023-04-28T15:08:01.954Z,100629.78
2023-04-28T15:11:05.309Z,100634.34
2023-04-28T15:14:08.705Z,100626.03
2023-04-28T15:17:12.576Z,100619.34
2023-04-28T15:20:15.782Z,100625.28
2023-04-28T15:23:20.432Z,100624.28
2023-04-28T15:26:23.812Z,100616.47
2023-04-28T15:29:27.270Z,100619.47
2023-04-28T15:32:31.847Z,100617.25
2023-04-28T15:35:35.492Z,100624.31
2023-04-28T15:38:38.677Z,100608.06
2023-04-28T15:41:42.617Z,100613.25
2023-04-28T15:44:46.066Z,100607.94
2023-04-28T15:47:51.069Z,100598.53
2023-04-28T15:50:54.404Z,100593.81
2023-04-28T15:53:59.037Z,100592.09
2023-04-28T15:57:02.131Z,100593.88
2023-04-28T16:00:08.000Z,100572.75
2023-04-28T16:03:13.119Z,100587.66
2023-04-28T16:06:17.509Z,100584.53
2023-04-28T16:09:21.385Z,100577.13
2023-04-28T16:12:24.518Z,100571.03
2023-04-28T16:15:27.988Z,100571.81
2023-04-28T16:18:31.344Z,100569.81
2023-04-28T16:21:34.764Z,100568.31
2023-04-28T16:24:42.653Z,100574.19
2023-04-28T16:27:45.965Z,100568.47
2023-04-28T16:30:49.669Z,100564.88
2023-04-28T16:33:53.723Z,100565.72
2023-04-28T16:36:56.932Z,100558.28
2023-04-28T16:40:00.744Z,100550.72
2023-04-28T16:43:04.580Z,100545.03
2023-04-28T16:46:08.253Z,100536.00
2023-04-28T16:49:13.058Z,100529.19
2023-04-28T16:52:16.875Z,100532.16
2023-04-28T16:55:21.391Z,100526.22
2023-04-28T16:58:26.320Z,100515.03
2023-04-28T17:01:30.615Z,100517.75
2023-04-28T17:04:35.430Z,100510.59
2023-04-28T17:07:39.380Z,100496.44
2023-04-28T17:10:42.719Z,100508.47
2023-04-28T17:13:45.967Z,100500.66
2023-04-28T17:16:49.449Z,100489.09
2023-04-28T17:19:52.991Z,100490.84
2023-04-28T17:23:02.462Z,100495.94
2023-04-28T17:26:06.488Z,100503.59
2023-04-28T17:29:10.389Z,100500.84
2023-04-28T17:32:13.761Z,100497.13
2023-04-28T17:35:17.214Z,100481.00
2023-04-28T17:38:20.605Z,100465.13
2023-04-28T17:41:25.078Z,100461.78
2023-04-28T17:44:28.597Z,100475.66
2023-04-28T17:47:32.696Z,100476.63
2023-04-28T17:50:36.030Z,100476.72
2023-04-28T17:53:39.841Z,100478.63
2023-04-28T17:56:43.197Z,100491.72
2023-04-28T17:59:50.450Z,100485.16
2023-04-28T18:02:55.752Z,100456.25
2023-04-28T18:06:00.847Z,100490.59
2023-04-28T18:09:05.147Z,100504.41
2023-04-28T18:12:10.702Z,100496.09
2023-04-28T18:15:14.217Z,100505.03
2023-04-28T18:18:19.700Z,100514.44
2023-04-28T18:21:24.038Z,100508.50
2023-04-28T18:24:27.946Z,100508.72
2023-04-28T18:27:31.424Z,100516.34
2023-04-28T18:30:38.321Z,100509.97
2023-04-28T18:33:42.551Z,100512.31
2023-04-28T18:36:46.385Z,100509.28
2023-04-28T18:39:50.630Z,100513.41
2023-04-28T18:42:54.533Z,100519.69
2023-04-28T18:45:58.221Z,100521.00
2023-04-28T18:49:04.105Z,100525.56
2023-04-28T18:52:08.076Z,100521.00
2023-04-28T18:55:13.480Z,100519.28
2023-04-28T18:58:17.650Z,100523.28
2023-04-28T19:01:25.544Z,100525.78
2023-04-28T19:04:31.558Z,100513.56
2023-04-28T19:07:35.891Z,100526.06
2023-04-28T19:10:40.319Z,100525.72
2023-04-28T19:13:47.413Z,100530.47
2023-04-28T19:16:51.915Z,100530.66
2023-04-28T19:19:57.790Z,100535.50
2023-04-28T19:23:04.908Z,100535.81
2023-04-28T19:26:10.173Z,100523.62
2023-04-28T19:29:17.774Z,100541.25
2023-04-28T19:32:24.000Z,100540.59
2023-04-28T19:35:28.606Z,100540.59
2023-04-28T19:38:32.909Z,100543.19
2023-04-28T19:41:37.215Z,100541.44
2023-04-28T19:44:41.025Z,100541.44
2023-04-28T19:47:45.305Z,100536.25
2023-04-28T19:50:49.805Z,100530.34
2023-04-28T19:53:55.800Z,100522.34
2023-04-28T19:57:02.705Z,100530.47
2023-04-28T20:00:10.862Z,100498.56
2023-04-28T20:03:15.559Z,100522.84
2023-04-28T20:06:20.883Z,100516.72
2023-04-28T20:09:25.601Z,100516.84
2023-04-28T20:12:29.298Z,100519.66
2023-04-28T20:15:33.145Z,100505.63
2023-04-28T20:18:37.622Z,100509.81
2023-04-28T20:21:42.445Z,100510.19
2023-04-28T20:24:50.474Z,100507.91
2023-04-28T20:27:54.389Z,100518.81
2023-04-28T20:30:59.977Z,100514.56
2023-04-28T20:34:04.941Z,100519.25
2023-04-28T20:37:08.419Z,100510.34
2023-04-28T20:40:12.324Z,100518.03
2023-04-28T20:43:16.047Z,100520.66
2023-04-28T20:46:19.367Z,100520.75
2023-04-28T20:49:22.905Z,100514.69
2023-04-28T20:52:26.517Z,100473.12
2023-04-28T20:55:29.596Z,100513.25
2023-04-28T20:58:33.253Z,100508.78
2023-04-28T21:01:36.771Z,100513.53
2023-04-28T21:04:40.524Z,100515.88
2023-04-28T21:07:44.570Z,100512.19
2023-04-28T21:10:48.121Z,100511.41
2023-04-28T21:13:51.581Z,100506.88
2023-04-28T21:16:55.038Z,100500.12
2023-04-28T21:19:58.382Z,100508.53
2023-04-28T21:23:02.796Z,100504.38
2023-04-28T21:26:07.026Z,100512.91
2023-04-28T21:29:10.642Z,100508.81
2023-04-28T21:32:14.895Z,100509.53
2023-04-28T21:35:18.331Z,100496.88
2023-04-28T21:38:22.512Z,100522.75
2023-04-28T21:41:26.355Z,100522.28
2023-04-28T21:44:30.063Z,100520.91
2023-04-28T21:47:33.624Z,100526.88
2023-04-28T21:50:37.725Z,100525.47
2023-04-28T21:53:41.201Z,100491.63
2023-04-28T21:56:44.315Z,100507.59
2023-04-28T21:59:48.245Z,100508.44
2023-04-28T22:02:53.073Z,100515.78
2023-04-28T22:05:56.991Z,100528.44
2023-04-28T22:09:01.533Z,100509.06
2023-04-28T22:12:04.846Z,100526.09
2023-04-28T22:15:08.764Z,100525.16
2023-04-28T22:18:12.749Z,100514.59
2023-04-28T22:21:16.011Z,100493.69
2023-04-28T22:24:19.857Z,100518.44
2023-04-28T22:27:23.156Z,100515.91
2023-04-28T22:30:27.397Z,100506.94
2023-04-28T22:33:30.457Z,100490.91
2023-04-28T22:36:33.853Z,100483.41
2023-04-28T22:39:37.750Z,100499.09
2023-04-28T22:42:42.791Z,100494.94
2023-04-28T22:45:46.292Z,100497.91
2023-04-28T22:48:50.160Z,100494.63
2023-04-28T22:51:53.297Z,100481.28
2023-04-28T22:54:56.963Z,100489.47
2023-04-28T22:58:00.144Z,100500.41
2023-04-28T23:01:05.094Z,100497.69
2023-04-28T23:04:08.764Z,100496.78
2023-04-28T23:07:12.280Z,100449.69
2023-04-28T23:10:15.750Z,100502.31
2023-04-28T23:13:19.605Z,100501.72
2023-04-28T23:16:24.258Z,100493.88
2023-04-28T23:19:27.928Z,100486.81
2023-04-28T23:22:31.773Z,100489.78
2023-04-28T23:25:36.542Z,100489.09
2023-04-28T23:28:39.701Z,100463.84
2023-04-28T23:31:43.354Z,100475.84
2023-04-28T23:34:46.618Z,100476.78
2023-04-28T23:37:50.038Z,100476.03
2023-04-28T23:40:53.349Z,100473.41
2023-04-28T23:43:57.003Z,100467.22
2023-04-28T23:47:00.242Z,100440.31
2023-04-28T23:50:05.102Z,100468.19
2023-04-28T23:53:08.717Z,100463.91
2023-04-28T23:56:12.313Z,100466.28
2023-04-28T23:59:16.382Z,100452.06
